createdAt,value
2022-09-20T00:01:18.102Z,7.53
2022-09-20T00:03:48.054Z,7.51
2022-09-20T00:06:18.029Z,7.55
2022-09-20T00:08:45.621Z,7.56
2022-09-20T00:11:18.848Z,7.56
2022-09-20T00:13:48.578Z,7.67
2022-09-20T00:16:19.623Z,7.72
2022-09-20T00:18:51.248Z,7.64
2022-09-20T00:21:21.096Z,7.70
2022-09-20T00:23:48.537Z,7.58
2022-09-20T00:26:15.951Z,7.57
2022-09-20T00:28:44.167Z,7.58
2022-09-20T00:31:12.088Z,7.65
2022-09-20T00:33:58.135Z,7.68
2022-09-20T00:36:27.383Z,7.68
2022-09-20T00:38:56.682Z,7.67
2022-09-20T00:41:24.043Z,7.71
2022-09-20T00:43:52.220Z,7.73
2022-09-20T00:46:42.051Z,7.72
2022-09-20T00:49:27.064Z,7.66
2022-09-20T00:52:01.782Z,7.67
2022-09-20T00:54:31.150Z,7.64
2022-09-20T00:56:58.441Z,7.68
2022-09-20T00:59:32.066Z,7.66
2022-09-20T01:02:20.248Z,7.64
2022-09-20T01:04:48.737Z,7.66
2022-09-20T01:07:18.072Z,7.65
2022-09-20T01:09:45.458Z,7.65
2022-09-20T01:12:18.371Z,7.65
2022-09-20T01:14:47.832Z,7.68
2022-09-20T01:17:16.095Z,7.70
2022-09-20T01:19:51.567Z,7.72
2022-09-20T01:22:43.336Z,7.78
2022-09-20T01:25:17.702Z,7.78
2022-09-20T01:27:50.176Z,7.76
2022-09-20T01:30:24.509Z,7.74
2022-09-20T01:33:23.776Z,7.78
2022-09-20T01:35:54.573Z,7.74
2022-09-20T01:39:04.295Z,7.83
2022-09-20T01:41:42.029Z,7.82
2022-09-20T01:44:18.025Z,7.78
2022-09-20T01:46:48.505Z,7.79
2022-09-20T01:49:56.873Z,7.77
2022-09-20T01:52:59.856Z,7.79
2022-09-20T01:55:44.425Z,7.78
2022-09-20T01:58:29.858Z,7.78
2022-09-20T02:01:15.801Z,7.76
2022-09-20T02:04:20.344Z,7.81
2022-09-20T02:07:38.601Z,7.73
2022-09-20T02:14:03.975Z,7.80
2022-09-20T02:16:55.123Z,7.75
2022-09-20T02:19:54.595Z,7.74
2022-09-20T02:22:36.574Z,7.68
2022-09-20T02:25:44.935Z,7.70
2022-09-20T02:28:39.215Z,7.68
2022-09-20T02:31:34.977Z,7.67
2022-09-20T02:34:29.972Z,7.74
2022-09-20T02:37:16.649Z,7.73
2022-09-20T02:40:03.182Z,7.69
2022-09-20T02:42:38.648Z,7.67
2022-09-20T02:45:18.608Z,7.69
2022-09-20T02:47:47.465Z,7.69
2022-09-20T02:50:30.052Z,7.67
2022-09-20T02:53:34.541Z,7.65
2022-09-20T02:56:17.656Z,7.59
2022-09-20T02:59:09.485Z,7.60
2022-09-20T03:02:07.682Z,7.56
2022-09-20T03:05:14.407Z,7.53
2022-09-20T03:08:18.829Z,7.51
2022-09-20T03:11:03.629Z,7.47
2022-09-20T03:13:46.693Z,7.43
2022-09-20T03:16:34.755Z,7.44
2022-09-20T03:19:04.649Z,7.37
2022-09-20T03:21:54.307Z,7.39
2022-09-20T03:24:46.979Z,7.41
2022-09-20T03:27:32.893Z,7.34
2022-09-20T03:30:41.589Z,7.39
2022-09-20T03:33:21.587Z,7.35
2022-09-20T03:36:25.439Z,7.35
2022-09-20T03:39:02.503Z,7.35
2022-09-20T03:41:57.072Z,7.41
2022-09-20T03:44:33.327Z,7.43
2022-09-20T03:47:27.564Z,7.45
2022-09-20T03:50:24.664Z,7.38
2022-09-20T03:53:10.159Z,7.46
2022-09-20T03:55:53.526Z,7.45
2022-09-20T03:58:50.587Z,7.44
2022-09-20T04:01:29.638Z,7.46
2022-09-20T04:04:34.146Z,7.50
2022-09-20T04:07:13.446Z,7.49
2022-09-20T04:09:40.466Z,7.52
2022-09-20T04:12:29.772Z,7.58
2022-09-20T04:15:12.444Z,7.53
2022-09-20T04:17:52.138Z,7.51
2022-09-20T04:20:40.264Z,7.50
2022-09-20T04:23:46.754Z,7.51
2022-09-20T04:26:20.744Z,7.52
2022-09-20T04:29:01.719Z,7.50
2022-09-20T04:31:49.747Z,7.46
2022-09-20T04:34:50.090Z,7.52
2022-09-20T04:37:29.965Z,7.51
2022-09-20T04:40:35.880Z,7.50
2022-09-20T04:43:51.145Z,7.47
2022-09-20T04:46:45.002Z,7.47
2022-09-20T04:49:50.232Z,7.47
2022-09-20T04:52:48.128Z,7.43
2022-09-20T04:55:52.997Z,7.46
2022-09-20T04:58:48.213Z,7.46
2022-09-20T05:01:33.512Z,7.41
2022-09-20T05:04:40.647Z,7.45
2022-09-20T05:07:26.561Z,7.49
2022-09-20T05:10:21.259Z,7.46
2022-09-20T05:13:04.183Z,7.42
2022-09-20T05:15:55.727Z,7.43
2022-09-20T05:18:51.118Z,7.43
2022-09-20T05:21:49.962Z,7.44
2022-09-20T05:24:38.863Z,7.43
2022-09-20T05:27:43.222Z,7.42
2022-09-20T05:30:31.172Z,7.52
2022-09-20T05:33:13.890Z,7.45
2022-09-20T05:35:49.087Z,7.41
2022-09-20T05:38:34.618Z,7.43
2022-09-20T05:41:14.277Z,7.44
2022-09-20T05:43:53.896Z,7.45
2022-09-20T05:46:53.018Z,7.53
2022-09-20T05:49:32.209Z,7.48
2022-09-20T05:52:36.726Z,7.52
2022-09-20T05:55:16.096Z,7.56
2022-09-20T05:58:17.041Z,7.57
2022-09-20T06:00:53.019Z,7.64
2022-09-20T06:03:36.777Z,7.64
2022-09-20T06:06:06.562Z,7.67
2022-09-20T06:08:57.734Z,7.66
2022-09-20T06:11:47.593Z,7.72
2022-09-20T06:14:32.888Z,7.78
2022-09-20T06:17:19.033Z,7.75
2022-09-20T06:20:12.847Z,7.86
2022-09-20T06:22:45.146Z,7.88
2022-09-20T06:25:20.715Z,7.87
2022-09-20T06:28:18.805Z,7.92
2022-09-20T06:30:49.276Z,7.92
2022-09-20T06:33:18.272Z,7.96
2022-09-20T06:35:53.779Z,8.04
2022-09-20T06:38:57.015Z,8.04
2022-09-20T06:41:28.735Z,7.97
2022-09-20T06:44:00.890Z,8.08
2022-09-20T06:46:30.446Z,8.08
2022-09-20T06:48:58.386Z,8.25
2022-09-20T06:51:26.955Z,8.24
2022-09-20T06:53:56.094Z,8.27
2022-09-20T06:56:26.974Z,8.25
2022-09-20T06:58:54.416Z,8.25
2022-09-20T07:01:29.665Z,8.21
2022-09-20T07:03:58.754Z,8.34
2022-09-20T07:06:26.840Z,8.31
2022-09-20T07:08:53.940Z,8.32
2022-09-20T07:11:23.225Z,8.34
2022-09-20T07:13:55.234Z,8.41
2022-09-20T07:16:22.549Z,8.30
2022-09-20T07:18:52.312Z,8.24
2022-09-20T07:21:20.632Z,8.13
2022-09-20T07:23:48.777Z,8.06
2022-09-20T07:26:21.470Z,8.11
2022-09-20T07:28:49.603Z,8.17
2022-09-20T07:31:21.663Z,8.14
2022-09-20T07:33:49.288Z,8.18
2022-09-20T07:36:16.633Z,8.19
2022-09-20T07:38:48.182Z,8.12
2022-09-20T07:41:15.447Z,8.21
2022-09-20T07:43:42.546Z,8.16
2022-09-20T07:46:12.118Z,8.13
2022-09-20T07:48:40.685Z,8.16
2022-09-20T07:51:13.552Z,8.13
2022-09-20T07:53:41.099Z,8.18
2022-09-20T07:56:16.646Z,8.29
2022-09-20T07:58:48.729Z,8.51
2022-09-20T08:01:20.998Z,8.55
2022-09-20T08:03:48.402Z,8.57
2022-09-20T08:06:16.650Z,8.55
2022-09-20T08:08:44.913Z,8.49
2022-09-20T08:11:15.477Z,8.57
2022-09-20T08:14:06.956Z,8.54
2022-09-20T08:16:45.387Z,8.57
2022-09-20T08:19:22.815Z,8.65
2022-09-20T08:21:53.081Z,8.69
2022-09-20T08:24:21.122Z,8.72
2022-09-20T08:26:49.044Z,8.57
2022-09-20T08:29:16.672Z,8.67
2022-09-20T08:31:44.189Z,8.58
2022-09-20T08:34:14.998Z,8.66
2022-09-20T08:36:46.925Z,8.81
2022-09-20T08:42:12.962Z,8.78
2022-09-20T08:45:01.428Z,8.76
2022-09-20T08:47:32.695Z,8.78
2022-09-20T08:50:09.208Z,8.82
2022-09-20T08:52:40.137Z,8.83
2022-09-20T08:55:16.980Z,8.74
2022-09-20T08:57:49.617Z,8.76
2022-09-20T09:00:21.109Z,8.79
2022-09-20T09:02:51.880Z,8.83
2022-09-20T09:05:33.954Z,8.92
2022-09-20T09:08:06.118Z,8.96
2022-09-20T09:10:45.901Z,8.88
2022-09-20T09:13:23.729Z,8.91
2022-09-20T09:16:01.508Z,8.93
2022-09-20T09:18:33.269Z,8.94
2022-09-20T09:21:04.198Z,9.06
2022-09-20T09:23:41.482Z,8.95
2022-09-20T09:26:18.982Z,8.84
2022-09-20T09:28:46.195Z,8.97
2022-09-20T09:31:22.574Z,8.93
2022-09-20T09:33:49.760Z,8.90
2022-09-20T09:36:25.798Z,9.04
2022-09-20T09:39:16.212Z,9.09
2022-09-20T09:41:44.388Z,9.21
2022-09-20T09:44:24.180Z,9.38
2022-09-20T09:46:53.657Z,9.50
2022-09-20T09:49:24.714Z,9.54
2022-09-20T09:52:13.471Z,9.76
2022-09-20T09:54:49.038Z,9.86
2022-09-20T09:57:37.441Z,9.96
2022-09-20T10:00:20.996Z,9.97
2022-09-20T10:03:07.064Z,9.93
2022-09-20T10:05:40.080Z,10.05
2022-09-20T10:08:22.003Z,10.03
2022-09-20T10:10:52.880Z,10.01
2022-09-20T10:13:50.937Z,10.05
2022-09-20T10:16:29.138Z,10.11
2022-09-20T10:19:19.508Z,10.16
2022-09-20T10:21:56.993Z,10.15
2022-09-20T10:24:48.600Z,10.19
2022-09-20T10:27:51.075Z,10.17
2022-09-20T10:30:26.269Z,10.34
2022-09-20T10:33:16.422Z,10.38
2022-09-20T10:35:57.754Z,10.35
2022-09-20T10:38:38.328Z,10.30
2022-09-20T10:41:30.319Z,10.39
2022-09-20T10:44:08.852Z,10.45
2022-09-20T10:46:53.674Z,10.44
2022-09-20T10:49:29.024Z,10.69
2022-09-20T10:52:32.305Z,10.80
2022-09-20T10:55:09.025Z,10.75
2022-09-20T10:57:46.954Z,10.92
2022-09-20T11:00:23.917Z,11.00
2022-09-20T11:02:58.917Z,11.11
2022-09-20T11:05:40.921Z,11.31
2022-09-20T11:08:13.907Z,11.19
2022-09-20T11:10:46.411Z,11.19
2022-09-20T11:13:42.131Z,11.15
2022-09-20T11:16:37.025Z,11.29
2022-09-20T11:19:34.539Z,11.38
2022-09-20T11:22:01.667Z,11.36
2022-09-20T11:25:00.453Z,11.46
2022-09-20T11:27:35.948Z,11.41
2022-09-20T11:30:08.563Z,11.46
2022-09-20T11:32:46.405Z,11.35
2022-09-20T11:35:19.339Z,11.31
2022-09-20T11:37:52.391Z,11.34
2022-09-20T11:40:34.853Z,11.35
2022-09-20T11:43:06.750Z,11.47
2022-09-20T11:45:35.389Z,11.84
2022-09-20T11:48:12.846Z,12.05
2022-09-20T11:50:51.477Z,12.12
2022-09-20T11:53:42.605Z,12.16
2022-09-20T11:56:19.135Z,12.24
2022-09-20T11:58:48.266Z,12.48
2022-09-20T12:01:37.624Z,12.68
2022-09-20T12:04:33.925Z,12.94
2022-09-20T12:07:10.526Z,12.64
2022-09-20T12:09:43.202Z,12.12
2022-09-20T12:12:32.274Z,11.65
2022-09-20T12:15:02.825Z,11.27
2022-09-20T12:17:47.961Z,11.00
2022-09-20T12:20:36.401Z,10.75
2022-09-20T12:23:54.496Z,10.59
2022-09-20T12:26:21.739Z,10.50
2022-09-20T12:28:57.266Z,10.51
2022-09-20T12:31:32.043Z,11.12
2022-09-20T12:34:11.797Z,11.56
2022-09-20T12:36:54.107Z,11.94
2022-09-20T12:39:30.083Z,12.08
2022-09-20T12:42:05.690Z,12.36
2022-09-20T12:44:48.960Z,12.49
2022-09-20T12:47:19.317Z,12.62
2022-09-20T12:50:05.061Z,12.70
2022-09-20T12:52:50.321Z,12.96
2022-09-20T12:55:32.900Z,12.75
2022-09-20T12:58:14.345Z,12.51
2022-09-20T13:00:59.611Z,12.52
2022-09-20T13:03:36.865Z,12.63
2022-09-20T13:06:07.231Z,12.81
2022-09-20T13:08:48.291Z,13.09
2022-09-20T13:11:20.320Z,13.41
2022-09-20T13:14:02.087Z,13.59
2022-09-20T13:16:52.388Z,12.98
2022-09-20T13:19:29.248Z,12.58
2022-09-20T13:22:01.004Z,12.36
2022-09-20T13:24:37.222Z,12.04
2022-09-20T13:27:24.586Z,12.39
2022-09-20T13:29:53.460Z,12.92
2022-09-20T13:32:31.699Z,13.35
2022-09-20T13:35:14.252Z,13.53
2022-09-20T13:37:58.448Z,13.55
2022-09-20T13:40:33.659Z,13.67
2022-09-20T13:43:24.910Z,13.86
2022-09-20T13:45:56.605Z,14.09
2022-09-20T13:48:28.064Z,13.81
2022-09-20T13:50:56.567Z,12.94
2022-09-20T13:53:42.446Z,12.15
2022-09-20T13:56:17.166Z,11.47
2022-09-20T13:58:44.619Z,10.94
2022-09-20T14:01:30.825Z,10.53
2022-09-20T14:04:07.160Z,10.08
2022-09-20T14:06:35.697Z,9.75
2022-09-20T14:09:10.674Z,9.62
2022-09-20T14:11:39.332Z,9.45
2022-09-20T14:14:08.020Z,9.37
2022-09-20T14:16:39.755Z,9.26
2022-09-20T14:19:08.296Z,9.28
2022-09-20T14:21:37.275Z,9.13
2022-09-20T14:24:28.821Z,9.08
2022-09-20T14:27:18.182Z,9.10
2022-09-20T14:29:48.947Z,9.03
2022-09-20T14:32:19.380Z,8.86
2022-09-20T14:35:16.081Z,8.81
2022-09-20T14:37:46.190Z,8.69
2022-09-20T14:40:27.207Z,8.77
2022-09-20T14:42:55.952Z,8.81
2022-09-20T14:45:27.798Z,8.98
2022-09-20T14:48:10.389Z,9.00
2022-09-20T14:50:43.659Z,9.04
2022-09-20T14:53:13.614Z,9.18
2022-09-20T14:56:08.480Z,9.48
2022-09-20T14:59:01.461Z,9.89
2022-09-20T15:01:28.978Z,10.03
2022-09-20T15:03:57.296Z,10.07
2022-09-20T15:06:25.251Z,10.27
2022-09-20T15:08:52.366Z,10.37
2022-09-20T15:11:20.576Z,10.48
2022-09-20T15:13:47.736Z,10.57
2022-09-20T15:16:18.604Z,10.71
2022-09-20T15:18:46.033Z,10.83
2022-09-20T15:21:13.204Z,10.90
2022-09-20T15:23:40.562Z,10.92
2022-09-20T15:26:09.910Z,10.98
2022-09-20T15:28:37.080Z,11.19
2022-09-20T15:31:04.401Z,11.23
2022-09-20T15:33:33.807Z,11.24
2022-09-20T15:36:04.544Z,11.27
2022-09-20T15:38:31.977Z,11.40
2022-09-20T15:41:03.454Z,11.38
2022-09-20T15:43:31.417Z,11.29
2022-09-20T15:46:03.017Z,11.33
2022-09-20T15:48:30.774Z,11.41
2022-09-20T15:50:58.962Z,11.28
2022-09-20T15:53:26.895Z,11.18
2022-09-20T15:55:54.453Z,11.01
2022-09-20T15:58:21.722Z,10.86
2022-09-20T16:00:49.909Z,10.79
2022-09-20T16:03:17.612Z,10.74
2022-09-20T16:05:44.757Z,10.61
2022-09-20T16:08:11.842Z,10.46
2022-09-20T16:10:39.141Z,10.34
2022-09-20T16:13:06.383Z,10.25
2022-09-20T16:15:33.499Z,10.16
2022-09-20T16:18:19.269Z,9.99
2022-09-20T16:20:46.338Z,9.93
2022-09-20T16:23:14.023Z,9.91
2022-09-20T16:25:41.104Z,10.12
2022-09-20T16:28:08.197Z,10.01
2022-09-20T16:30:35.632Z,9.95
2022-09-20T16:33:05.556Z,9.95
2022-09-20T16:35:34.130Z,9.83
2022-09-20T16:38:01.445Z,9.75
2022-09-20T16:40:28.565Z,9.74
2022-09-20T16:42:58.637Z,9.73
2022-09-20T16:45:26.902Z,9.81
2022-09-20T16:47:58.041Z,9.94
2022-09-20T16:50:25.150Z,9.98
2022-09-20T16:52:52.550Z,9.97
2022-09-20T16:55:20.774Z,9.93
2022-09-20T16:57:51.091Z,9.97
2022-09-20T17:00:21.898Z,10.05
2022-09-20T17:02:53.080Z,10.12
2022-09-20T17:05:20.174Z,10.02
2022-09-20T17:07:47.366Z,9.92
2022-09-20T17:10:14.703Z,9.81
2022-09-20T17:12:43.417Z,9.69
2022-09-20T17:15:13.147Z,9.50
2022-09-20T17:17:40.344Z,9.23
2022-09-20T17:20:07.942Z,9.14
2022-09-20T17:22:35.224Z,9.16
2022-09-20T17:25:02.440Z,9.14
2022-09-20T17:27:29.984Z,9.19
2022-09-20T17:29:57.193Z,9.20
2022-09-20T17:32:25.110Z,9.19
2022-09-20T17:34:52.937Z,9.21
2022-09-20T17:37:20.031Z,9.05
2022-09-20T17:39:47.129Z,8.96
2022-09-20T17:42:14.288Z,8.99
2022-09-20T17:44:43.104Z,8.95
2022-09-20T17:47:10.350Z,8.87
2022-09-20T17:49:38.480Z,8.79
2022-09-20T17:52:08.072Z,8.74
2022-09-20T17:54:35.214Z,8.73
2022-09-20T17:57:02.423Z,8.73
2022-09-20T17:59:29.620Z,8.72
2022-09-20T18:01:56.853Z,8.74
2022-09-20T18:04:26.667Z,8.72
2022-09-20T18:06:55.628Z,8.75
2022-09-20T18:09:24.872Z,8.75
2022-09-20T18:11:53.587Z,8.72
2022-09-20T18:14:23.393Z,8.67
2022-09-20T18:16:56.269Z,8.70
2022-09-20T18:19:23.718Z,8.71
2022-09-20T18:21:51.430Z,8.64
2022-09-20T18:24:18.506Z,8.65
2022-09-20T18:26:45.682Z,8.56
2022-09-20T18:29:18.810Z,8.49
2022-09-20T18:31:55.346Z,8.38
2022-09-20T18:34:24.700Z,8.41
2022-09-20T18:36:54.450Z,8.30
2022-09-20T18:39:29.676Z,8.23
2022-09-20T18:41:57.367Z,8.15
2022-09-20T18:44:24.453Z,8.17
2022-09-20T18:46:53.465Z,8.19
2022-09-20T18:49:21.635Z,8.16
2022-09-20T18:51:49.535Z,8.09
2022-09-20T18:54:17.302Z,8.00
2022-09-20T18:56:46.989Z,7.96
2022-09-20T18:59:21.014Z,7.94
2022-09-20T19:01:54.518Z,7.91
2022-09-20T19:04:44.203Z,7.90
2022-09-20T19:07:52.016Z,7.95
2022-09-20T19:10:44.385Z,8.07
2022-09-20T19:13:16.350Z,8.09
2022-09-20T19:15:51.591Z,8.07
2022-09-20T19:18:31.960Z,8.09
2022-09-20T19:21:25.721Z,8.03
2022-09-20T19:24:17.795Z,8.19
2022-09-20T19:26:45.720Z,8.15
2022-09-20T19:29:24.808Z,8.12
2022-09-20T19:31:55.534Z,8.12
2022-09-20T19:34:30.710Z,8.22
2022-09-20T19:37:10.000Z,8.31
2022-09-20T19:39:43.800Z,8.38
2022-09-20T19:42:36.255Z,8.37
2022-09-20T19:45:06.934Z,8.37
2022-09-20T19:48:12.146Z,8.38
2022-09-20T19:50:47.213Z,8.43
2022-09-20T19:53:17.457Z,8.35
2022-09-20T19:55:48.180Z,8.31
2022-09-20T19:58:17.383Z,8.24
2022-09-20T20:00:45.866Z,8.34
2022-09-20T20:03:14.694Z,8.38
2022-09-20T20:06:16.225Z,8.37
2022-09-20T20:09:07.133Z,8.35
2022-09-20T20:11:46.906Z,8.16
2022-09-20T20:14:20.107Z,8.17
2022-09-20T20:17:05.603Z,8.22
2022-09-20T20:19:57.294Z,8.24
2022-09-20T20:22:47.280Z,8.22
2022-09-20T20:25:34.918Z,8.21
2022-09-20T20:28:02.068Z,8.15
2022-09-20T20:30:29.311Z,8.21
2022-09-20T20:32:59.874Z,8.20
2022-09-20T20:35:26.991Z,8.21
2022-09-20T20:37:54.252Z,8.19
2022-09-20T20:40:21.577Z,8.25
2022-09-20T20:42:48.949Z,8.25
2022-09-20T20:45:16.272Z,8.25
2022-09-20T20:47:44.140Z,8.35
2022-09-20T20:50:13.841Z,8.38
2022-09-20T20:52:41.161Z,8.37
2022-09-20T20:55:09.713Z,8.41
2022-09-20T20:57:37.992Z,8.41
2022-09-20T21:00:05.701Z,8.34
2022-09-20T21:02:33.392Z,8.41
2022-09-20T21:05:01.213Z,8.36
2022-09-20T21:07:30.051Z,8.44
2022-09-20T21:10:05.126Z,8.40
2022-09-20T21:12:33.870Z,8.37
2022-09-20T21:15:01.252Z,8.36
2022-09-20T21:17:32.647Z,8.39
2022-09-20T21:20:02.626Z,8.40
2022-09-20T21:22:31.209Z,8.45
2022-09-20T21:24:59.172Z,8.43
2022-09-20T21:27:27.360Z,8.42
2022-09-20T21:29:54.486Z,8.46
2022-09-20T21:32:21.683Z,8.52
2022-09-20T21:34:49.197Z,8.50
2022-09-20T21:37:16.940Z,8.48
2022-09-20T21:39:45.780Z,8.43
2022-09-20T21:42:13.424Z,8.41
2022-09-20T21:44:43.184Z,8.37
2022-09-20T21:47:10.385Z,8.40
2022-09-20T21:49:37.773Z,8.42
2022-09-20T21:52:05.943Z,8.44
2022-09-20T21:54:33.027Z,8.52
2022-09-20T21:57:00.203Z,8.51
2022-09-20T21:59:27.310Z,8.50
2022-09-20T22:01:55.097Z,8.49
2022-09-20T22:04:22.703Z,8.48
2022-09-20T22:06:49.904Z,8.55
2022-09-20T22:09:18.005Z,8.52
2022-09-20T22:11:47.315Z,8.43
2022-09-20T22:14:16.248Z,8.44
2022-09-20T22:16:45.205Z,8.43
2022-09-20T22:19:14.971Z,8.43
2022-09-20T22:21:44.681Z,8.46
2022-09-20T22:24:13.694Z,8.54
2022-09-20T22:26:46.448Z,8.48
2022-09-20T22:29:14.772Z,8.51
2022-09-20T22:31:46.822Z,8.54
2022-09-20T22:34:21.358Z,8.43
2022-09-20T22:36:48.780Z,8.37
2022-09-20T22:39:17.091Z,8.33
2022-09-20T22:41:44.926Z,8.25
2022-09-20T22:44:12.438Z,8.28
2022-09-20T22:46:40.131Z,8.20
2022-09-20T22:49:09.403Z,8.18
2022-09-20T22:51:37.605Z,8.24
2022-09-20T22:54:07.745Z,8.29
2022-09-20T22:56:36.541Z,8.32
2022-09-20T22:59:05.017Z,8.30
2022-09-20T23:01:34.790Z,8.30
2022-09-20T23:04:08.084Z,8.31
2022-09-20T23:06:39.730Z,8.30
2022-09-20T23:09:11.093Z,8.29
2022-09-20T23:11:41.941Z,8.30
2022-09-20T23:14:11.795Z,8.24
2022-09-20T23:16:39.598Z,8.26
2022-09-20T23:19:08.575Z,8.26
2022-09-20T23:21:37.421Z,8.31
2022-09-20T23:24:07.250Z,8.25
2022-09-20T23:26:36.853Z,8.26
2022-09-20T23:29:07.869Z,8.22
2022-09-20T23:31:37.556Z,8.23
2022-09-20T23:34:06.606Z,8.30
2022-09-20T23:36:36.433Z,8.32
2022-09-20T23:39:05.736Z,8.29
2022-09-20T23:41:33.233Z,8.33
2022-09-20T23:44:00.593Z,8.25
2022-09-20T23:46:27.730Z,8.25
2022-09-20T23:48:55.050Z,8.17
2022-09-20T23:51:24.982Z,8.24
2022-09-20T23:53:53.307Z,8.25
2022-09-20T23:56:21.892Z,8.33
2022-09-20T23:58:50.206Z,8.24
